createdAt,value
2018-07-03T00:02:30.523Z,101244.67
2018-07-03T00:05:35.593Z,101242.43
2018-07-03T00:08:40.422Z,101238.64
2018-07-03T00:11:46.499Z,101244.75
2018-07-03T00:14:53.433Z,101239.63
2018-07-03T00:17:59.542Z,101242.87
2018-07-03T00:21:04.378Z,101240.56
2018-07-03T00:24:09.721Z,101242.92
2018-07-03T00:27:16.396Z,101240.34
2018-07-03T00:30:21.783Z,101238.83
2018-07-03T00:33:27.046Z,101240.85
2018-07-03T00:36:32.554Z,101241.03
2018-07-03T00:39:37.628Z,101236.94
2018-07-03T00:42:42.782Z,101232.59
2018-07-03T00:45:47.861Z,101234.58
2018-07-03T00:48:53.124Z,101234.39
2018-07-03T00:51:58.697Z,101235.42
2018-07-03T00:55:04.451Z,101230.90
2018-07-03T00:58:10.490Z,101235.96
2018-07-03T01:01:16.303Z,101242.11
2018-07-03T01:04:22.864Z,101241.08
2018-07-03T01:07:28.202Z,101236.92
2018-07-03T01:10:33.429Z,101241.02
2018-07-03T01:13:39.122Z,101239.36
2018-07-03T01:16:44.980Z,101240.91
2018-07-03T01:19:49.772Z,101236.81
2018-07-03T01:22:54.653Z,101230.07
2018-07-03T01:26:00.296Z,101229.04
2018-07-03T01:29:06.374Z,101229.91
2018-07-03T01:32:11.977Z,101226.57
2018-07-03T01:35:17.099Z,101222.88
2018-07-03T01:38:22.167Z,101230.39
2018-07-03T01:41:28.321Z,101233.59
2018-07-03T01:44:33.168Z,101221.38
2018-07-03T01:47:39.825Z,101225.96
2018-07-03T01:50:45.386Z,101229.55
2018-07-03T01:53:50.489Z,101233.17
2018-07-03T01:56:55.921Z,101235.92
2018-07-03T02:00:01.870Z,101224.48
2018-07-03T02:03:07.522Z,101222.07
2018-07-03T02:06:12.442Z,101218.33
2018-07-03T02:09:17.914Z,101216.00
2018-07-03T02:12:23.824Z,101215.80
2018-07-03T02:15:28.766Z,101206.53
2018-07-03T02:18:34.513Z,101210.48
2018-07-03T02:21:39.823Z,101205.57
2018-07-03T02:24:44.634Z,101203.45
2018-07-03T02:27:49.731Z,101208.28
2018-07-03T02:30:54.827Z,101197.47
2018-07-03T02:34:00.637Z,101200.59
2018-07-03T02:37:05.799Z,101198.89
2018-07-03T02:40:10.921Z,101199.02
2018-07-03T02:43:16.926Z,101198.89
2018-07-03T02:46:22.348Z,101196.45
2018-07-03T02:49:28.426Z,101202.14
2018-07-03T02:52:34.785Z,101199.06
2018-07-03T02:55:46.858Z,101196.98
2018-07-03T02:58:53.071Z,101194.19
2018-07-03T03:01:58.448Z,101201.62
2018-07-03T03:05:03.540Z,101195.34
2018-07-03T03:08:09.085Z,101194.34
2018-07-03T03:11:14.082Z,101193.97
2018-07-03T03:14:18.956Z,101193.89
2018-07-03T03:17:24.758Z,101196.70
2018-07-03T03:20:29.854Z,101194.64
2018-07-03T03:23:35.709Z,101192.14
2018-07-03T03:26:40.822Z,101191.46
2018-07-03T03:29:46.238Z,101194.20
2018-07-03T03:32:51.458Z,101190.41
2018-07-03T03:35:58.770Z,101191.33
2018-07-03T03:39:06.307Z,101194.03
2018-07-03T03:42:12.164Z,101192.81
2018-07-03T03:45:17.310Z,101198.80
2018-07-03T03:48:23.268Z,101194.72
2018-07-03T03:51:28.902Z,101199.12
2018-07-03T03:54:34.214Z,101199.62
2018-07-03T03:57:40.305Z,101192.80
2018-07-03T04:00:46.854Z,101198.28
2018-07-03T04:03:53.064Z,101203.03
2018-07-03T04:06:59.191Z,101195.83
2018-07-03T04:10:05.264Z,101193.26
2018-07-03T04:13:10.891Z,101197.05
2018-07-03T04:16:16.013Z,101194.02
2018-07-03T04:19:23.243Z,101193.18
2018-07-03T04:22:30.986Z,101197.45
2018-07-03T04:25:36.430Z,101194.11
2018-07-03T04:28:42.466Z,101202.97
2018-07-03T04:31:47.559Z,101193.11
2018-07-03T04:34:52.675Z,101193.45
2018-07-03T04:37:57.858Z,101187.30
2018-07-03T04:41:02.938Z,101192.53
2018-07-03T04:44:08.442Z,101193.59
2018-07-03T04:47:14.250Z,101195.63
2018-07-03T04:50:19.345Z,101194.64
2018-07-03T04:53:25.597Z,101193.59
2018-07-03T04:56:31.198Z,101199.72
2018-07-03T04:59:37.270Z,101198.59
2018-07-03T05:02:44.327Z,101197.39
2018-07-03T05:05:50.843Z,101205.02
2018-07-03T05:08:56.558Z,101207.38
2018-07-03T05:12:02.038Z,101197.38
2018-07-03T05:15:08.214Z,101204.20
2018-07-03T05:18:14.159Z,101202.20
2018-07-03T05:21:19.281Z,101203.56
2018-07-03T05:24:25.994Z,101204.84
2018-07-03T05:27:31.724Z,101202.38
2018-07-03T05:30:36.823Z,101204.56
2018-07-03T05:33:41.966Z,101200.72
2018-07-03T05:36:47.115Z,101208.44
2018-07-03T05:39:52.221Z,101209.79
2018-07-03T05:42:57.355Z,101210.36
2018-07-03T05:46:04.179Z,101208.75
2018-07-03T05:49:10.139Z,101213.97
2018-07-03T05:52:15.256Z,101211.03
2018-07-03T05:55:20.682Z,101211.92
2018-07-03T05:58:26.627Z,101204.27
2018-07-03T06:01:33.285Z,101211.23
2018-07-03T06:04:39.186Z,101214.70
2018-07-03T06:07:44.832Z,101215.11
2018-07-03T06:10:50.990Z,101216.91
2018-07-03T06:13:57.023Z,101216.84
2018-07-03T06:17:02.345Z,101213.89
2018-07-03T06:20:08.649Z,101213.01
2018-07-03T06:23:13.836Z,101211.28
2018-07-03T06:26:18.690Z,101220.33
2018-07-03T06:29:24.291Z,101225.06
2018-07-03T06:32:30.345Z,101226.75
2018-07-03T06:35:35.807Z,101228.04
2018-07-03T06:38:40.890Z,101219.84
2018-07-03T06:41:46.042Z,101224.10
2018-07-03T06:44:52.153Z,101224.91
2018-07-03T06:47:58.689Z,101223.54
2018-07-03T06:51:03.865Z,101213.09
2018-07-03T06:54:11.246Z,101216.09
2018-07-03T06:57:16.210Z,101218.48
2018-07-03T07:00:21.347Z,101224.47
2018-07-03T07:03:26.172Z,101221.78
2018-07-03T07:06:32.550Z,101226.40
2018-07-03T07:09:38.609Z,101223.23
2018-07-03T07:12:45.162Z,101218.41
2018-07-03T07:15:52.249Z,101226.41
2018-07-03T07:18:57.950Z,101224.79
2018-07-03T07:22:03.442Z,101220.89
2018-07-03T07:25:10.816Z,101227.14
2018-07-03T07:28:17.317Z,101225.26
2018-07-03T07:31:23.673Z,101235.90
2018-07-03T07:34:28.547Z,101231.30
2018-07-03T07:37:33.380Z,101232.83
2018-07-03T07:40:39.525Z,101233.84
2018-07-03T07:43:44.633Z,101235.73
2018-07-03T07:46:49.798Z,101234.17
2018-07-03T07:49:55.488Z,101236.05
2018-07-03T07:53:01.375Z,101240.04
2018-07-03T07:56:06.481Z,101241.08
2018-07-03T07:59:12.362Z,101239.89
2018-07-03T08:02:17.711Z,101245.17
2018-07-03T08:05:22.838Z,101237.93
2018-07-03T08:08:27.999Z,101242.84
2018-07-03T08:11:33.104Z,101230.27
2018-07-03T08:14:38.213Z,101229.03
2018-07-03T08:17:44.410Z,101224.83
2018-07-03T08:20:50.263Z,101225.95
2018-07-03T08:23:56.242Z,101220.44
2018-07-03T08:27:02.963Z,101222.16
2018-07-03T08:30:08.526Z,101222.58
2018-07-03T08:33:14.674Z,101226.87
2018-07-03T08:36:20.216Z,101227.59
2018-07-03T08:39:26.118Z,101231.05
2018-07-03T08:42:31.253Z,101228.92
2018-07-03T08:45:37.868Z,101229.28
2018-07-03T08:48:43.501Z,101224.11
2018-07-03T08:51:49.535Z,101231.80
2018-07-03T08:54:55.100Z,101229.05
2018-07-03T08:58:01.047Z,101232.12
2018-07-03T09:01:07.220Z,101233.41
2018-07-03T09:04:14.613Z,101225.91
2018-07-03T09:07:20.718Z,101218.88
2018-07-03T09:10:26.433Z,101217.55
2018-07-03T09:13:31.251Z,101213.94
2018-07-03T09:16:36.219Z,101218.98
2018-07-03T09:19:41.815Z,101212.73
2018-07-03T09:22:47.831Z,101206.97
2018-07-03T09:25:53.282Z,101205.49
2018-07-03T09:28:58.400Z,101199.23
2018-07-03T09:32:03.831Z,101206.27
2018-07-03T09:35:09.765Z,101199.50
2018-07-03T09:38:16.214Z,101199.61
2018-07-03T09:41:21.191Z,101197.38
2018-07-03T09:44:26.789Z,101197.88
2018-07-03T09:47:32.359Z,101195.36
2018-07-03T09:50:38.218Z,101189.64
2018-07-03T09:53:44.163Z,101186.62
2018-07-03T09:56:49.304Z,101187.36
2018-07-03T09:59:54.422Z,101185.56
2018-07-03T10:02:59.282Z,101181.33
2018-07-03T10:06:05.493Z,101189.61
2018-07-03T10:09:11.686Z,101196.80
2018-07-03T10:12:17.329Z,101196.88
2018-07-03T10:15:22.825Z,101194.40
2018-07-03T10:18:29.467Z,101198.82
2018-07-03T10:21:34.607Z,101200.33
2018-07-03T10:24:40.662Z,101194.20
2018-07-03T10:27:45.778Z,101192.18
2018-07-03T10:30:51.210Z,101182.66
2018-07-03T10:33:57.859Z,101187.27
2018-07-03T10:37:03.014Z,101192.31
2018-07-03T10:40:08.697Z,101190.40
2018-07-03T10:43:14.627Z,101189.80
2018-07-03T10:46:19.750Z,101194.06
2018-07-03T10:49:25.009Z,101190.80
2018-07-03T10:52:30.117Z,101191.44
2018-07-03T10:55:36.198Z,101195.56
2018-07-03T10:58:42.460Z,101186.23
2018-07-03T11:01:48.306Z,101187.20
2018-07-03T11:04:54.443Z,101186.56
2018-07-03T11:08:00.424Z,101189.92
2018-07-03T11:11:06.518Z,101189.00
2018-07-03T11:14:12.466Z,101192.11
2018-07-03T11:17:17.315Z,101181.83
2018-07-03T11:20:23.293Z,101188.47
2018-07-03T11:23:29.101Z,101190.59
2018-07-03T11:26:33.975Z,101185.97
2018-07-03T11:29:38.975Z,101187.09
2018-07-03T11:32:44.118Z,101180.69
2018-07-03T11:35:49.596Z,101180.61
2018-07-03T11:38:55.554Z,101179.45
2018-07-03T11:42:02.950Z,101170.42
2018-07-03T11:45:09.002Z,101169.94
2018-07-03T11:48:14.975Z,101164.21
2018-07-03T11:51:20.932Z,101166.84
2018-07-03T11:54:26.922Z,101157.50
2018-07-03T11:57:33.321Z,101161.81
2018-07-03T12:00:39.110Z,101146.94
2018-07-03T12:03:44.558Z,101141.18
2018-07-03T12:06:51.643Z,101152.59
2018-07-03T12:09:58.057Z,101152.47
2018-07-03T12:13:04.110Z,101148.63
2018-07-03T12:16:09.787Z,101148.06
2018-07-03T12:19:15.862Z,101153.24
2018-07-03T12:22:21.435Z,101151.00
2018-07-03T12:25:26.566Z,101153.05
2018-07-03T12:28:31.914Z,101145.63
2018-07-03T12:31:37.026Z,101147.83
2018-07-03T12:34:43.172Z,101148.23
2018-07-03T12:37:48.267Z,101149.23
2018-07-03T12:40:53.903Z,101142.09
2018-07-03T12:43:59.333Z,101149.04
2018-07-03T12:47:05.206Z,101148.77
2018-07-03T12:50:10.995Z,101149.31
2018-07-03T12:53:16.105Z,101140.78
2018-07-03T12:56:21.241Z,101146.61
2018-07-03T12:59:26.352Z,101150.06
2018-07-03T13:02:31.822Z,101151.21
2018-07-03T13:05:36.966Z,101148.75
2018-07-03T13:08:42.110Z,101145.80
2018-07-03T13:11:47.434Z,101146.78
2018-07-03T13:14:53.303Z,101136.44
2018-07-03T13:18:01.488Z,101135.65
2018-07-03T13:21:06.970Z,101131.84
2018-07-03T13:24:12.093Z,101123.95
2018-07-03T13:27:17.564Z,101139.43
2018-07-03T13:30:23.179Z,101128.59
2018-07-03T13:33:28.279Z,101128.79
2018-07-03T13:36:33.841Z,101131.75
2018-07-03T13:39:39.849Z,101128.14
2018-07-03T13:42:44.954Z,101125.51
2018-07-03T13:45:50.073Z,101127.32
2018-07-03T13:48:55.510Z,101117.12
2018-07-03T13:52:01.603Z,101109.23
2018-07-03T13:55:07.622Z,101107.56
2018-07-03T13:58:12.742Z,101106.58
2018-07-03T14:01:18.765Z,101104.77
2018-07-03T14:04:24.845Z,101100.66
2018-07-03T14:07:29.986Z,101100.17
2018-07-03T14:10:36.112Z,101095.59
2018-07-03T14:13:42.369Z,101093.95
2018-07-03T14:16:48.657Z,101105.00
2018-07-03T14:19:54.654Z,101104.20
2018-07-03T14:23:00.503Z,101099.10
2018-07-03T14:26:05.627Z,101103.07
2018-07-03T14:29:11.915Z,101102.13
2018-07-03T14:32:18.052Z,101094.75
2018-07-03T14:35:23.896Z,101096.05
2018-07-03T14:38:29.748Z,101093.91
2018-07-03T14:41:35.451Z,101098.53
2018-07-03T14:44:40.321Z,101095.39
2018-07-03T14:47:45.441Z,101096.72
2018-07-03T14:50:50.923Z,101093.74
2018-07-03T14:53:55.770Z,101094.58
2018-07-03T14:57:01.399Z,101099.50
2018-07-03T15:00:07.914Z,101093.09
2018-07-03T15:03:14.145Z,101096.73
2018-07-03T15:06:19.014Z,101096.21
2018-07-03T15:09:23.854Z,101097.86
2018-07-03T15:12:29.333Z,101102.13
2018-07-03T15:15:35.018Z,101101.45
2018-07-03T15:18:45.392Z,101096.68
2018-07-03T15:21:51.600Z,101091.91
2018-07-03T15:24:57.036Z,101096.85
2018-07-03T15:28:03.194Z,101099.81
2018-07-03T15:31:08.278Z,101097.03
2018-07-03T15:34:13.439Z,101094.89
2018-07-03T15:37:19.112Z,101089.94
2018-07-03T15:40:26.533Z,101089.61
2018-07-03T15:43:32.277Z,101088.96
2018-07-03T15:46:39.313Z,101093.42
2018-07-03T15:49:44.761Z,101089.61
2018-07-03T15:52:49.905Z,101090.77
2018-07-03T15:55:55.642Z,101085.35
2018-07-03T15:59:00.785Z,101083.06
2018-07-03T16:02:06.247Z,101082.73
2018-07-03T16:05:23.421Z,101085.52
2018-07-03T16:08:41.896Z,101088.32
2018-07-03T16:11:47.782Z,101081.72
2018-07-03T16:14:54.290Z,101081.22
2018-07-03T16:18:00.409Z,101082.88
2018-07-03T16:21:06.074Z,101076.15
2018-07-03T16:24:12.329Z,101074.49
2018-07-03T16:27:17.901Z,101072.38
2018-07-03T16:30:23.603Z,101076.80
2018-07-03T16:33:29.173Z,101070.41
2018-07-03T16:36:35.026Z,101068.41
2018-07-03T16:39:40.901Z,101063.83
2018-07-03T16:42:46.849Z,101064.81
2018-07-03T16:45:51.959Z,101063.64
2018-07-03T16:48:57.702Z,101058.70
2018-07-03T16:52:03.598Z,101055.23
2018-07-03T16:55:09.618Z,101061.81
2018-07-03T16:58:14.838Z,101060.48
2018-07-03T17:01:20.002Z,101062.92
2018-07-03T17:04:25.864Z,101060.63
2018-07-03T17:07:31.035Z,101055.67
2018-07-03T17:10:36.450Z,101059.26
2018-07-03T17:13:41.515Z,101061.86
2018-07-03T17:16:46.903Z,101057.09
2018-07-03T17:19:53.362Z,101055.87
2018-07-03T17:22:59.687Z,101059.77
2018-07-03T17:26:05.809Z,101061.90
2018-07-03T17:29:12.311Z,101058.73
2018-07-03T17:32:18.007Z,101059.17
2018-07-03T17:35:23.771Z,101051.08
2018-07-03T17:38:28.956Z,101051.19
2018-07-03T17:41:45.386Z,101046.73
2018-07-03T17:46:05.515Z,101053.86
2018-07-03T17:49:10.345Z,101045.90
2018-07-03T17:52:16.529Z,101045.84
2018-07-03T17:55:22.579Z,101053.30
2018-07-03T17:58:28.810Z,101044.03
2018-07-03T18:01:33.710Z,101044.94
2018-07-03T18:04:39.361Z,101048.45
2018-07-03T18:07:44.914Z,101045.78
2018-07-03T18:10:50.416Z,101043.20
2018-07-03T18:13:56.116Z,101046.37
2018-07-03T18:17:03.051Z,101047.73
2018-07-03T18:20:07.870Z,101052.67
2018-07-03T18:23:14.054Z,101050.47
2018-07-03T18:26:19.248Z,101051.34
2018-07-03T18:29:25.131Z,101057.81
2018-07-03T18:32:30.673Z,101056.73
2018-07-03T18:35:36.552Z,101055.77
2018-07-03T18:38:42.725Z,101060.89
2018-07-03T18:41:48.448Z,101059.02
2018-07-03T18:44:53.693Z,101061.17
2018-07-03T18:47:59.320Z,101063.03
2018-07-03T18:51:05.576Z,101054.75
2018-07-03T18:54:13.086Z,101052.48
2018-07-03T18:57:18.890Z,101054.49
2018-07-03T19:00:25.025Z,101059.25
2018-07-03T19:03:32.197Z,101061.84
2018-07-03T19:06:38.118Z,101061.88
2018-07-03T19:09:43.608Z,101064.34
2018-07-03T19:12:48.761Z,101059.31
2018-07-03T19:15:53.873Z,101055.58
2018-07-03T19:18:59.214Z,101055.71
2018-07-03T19:22:04.635Z,101054.63
2018-07-03T19:25:09.748Z,101063.89
2018-07-03T19:28:14.906Z,101063.25
2018-07-03T19:31:21.350Z,101063.23
2018-07-03T19:34:26.458Z,101064.95
2018-07-03T19:37:31.679Z,101071.59
2018-07-03T19:40:39.107Z,101075.73
2018-07-03T19:43:44.577Z,101072.94
2018-07-03T19:46:50.523Z,101074.70
2018-07-03T19:49:55.434Z,101080.91
2018-07-03T19:53:01.596Z,101080.98
2018-07-03T19:56:06.722Z,101083.67
2018-07-03T19:59:12.247Z,101082.62
2018-07-03T20:02:18.672Z,101084.81
2018-07-03T20:05:24.516Z,101083.91
2018-07-03T20:08:30.246Z,101077.80
2018-07-03T20:11:36.174Z,101082.09
2018-07-03T20:14:42.316Z,101084.17
2018-07-03T20:17:47.906Z,101079.83
2018-07-03T20:20:53.826Z,101077.00
2018-07-03T20:23:58.944Z,101072.05
2018-07-03T20:27:04.409Z,101068.84
2018-07-03T20:30:10.498Z,101076.67
2018-07-03T20:33:16.184Z,101075.88
2018-07-03T20:36:21.296Z,101078.23
2018-07-03T20:39:26.342Z,101079.91
2018-07-03T20:42:31.240Z,101083.69
2018-07-03T20:45:36.279Z,101085.96
2018-07-03T20:48:41.469Z,101087.02
2018-07-03T20:51:46.574Z,101084.41
2018-07-03T20:54:52.712Z,101090.41
2018-07-03T20:57:58.806Z,101085.91
2018-07-03T21:01:03.894Z,101087.77
2018-07-03T21:04:08.923Z,101083.14
2018-07-03T21:07:13.985Z,101085.00
2018-07-03T21:10:19.124Z,101085.69
2018-07-03T21:13:24.231Z,101081.98
2018-07-03T21:16:30.870Z,101088.71
2018-07-03T21:19:36.342Z,101086.91
2018-07-03T21:22:41.998Z,101085.33
2018-07-03T21:25:48.163Z,101076.69
2018-07-03T21:28:54.134Z,101084.56
2018-07-03T21:31:59.002Z,101078.02
2018-07-03T21:35:04.318Z,101080.77
2018-07-03T21:38:10.401Z,101080.63
2018-07-03T21:41:16.519Z,101075.42
2018-07-03T21:44:21.712Z,101082.82
2018-07-03T21:47:27.638Z,101085.98
2018-07-03T21:50:32.746Z,101081.44
2018-07-03T21:53:39.085Z,101080.14
2018-07-03T21:56:45.661Z,101073.45
2018-07-03T21:59:50.915Z,101073.16
2018-07-03T22:02:57.612Z,101077.84
2018-07-03T22:06:03.707Z,101085.80
2018-07-03T22:09:12.050Z,101084.36
2018-07-03T22:12:17.835Z,101086.39
2018-07-03T22:15:23.845Z,101089.50
2018-07-03T22:18:29.908Z,101088.52
2018-07-03T22:21:36.822Z,101095.77
2018-07-03T22:24:44.021Z,101089.68
2018-07-03T22:27:48.877Z,101090.66
2018-07-03T22:30:54.507Z,101074.77
2018-07-03T22:34:00.699Z,101077.32
2018-07-03T22:37:05.799Z,101080.52
2018-07-03T22:40:11.487Z,101080.52
2018-07-03T22:43:17.521Z,101073.45
2018-07-03T22:46:23.559Z,101077.55
2018-07-03T22:49:28.671Z,101075.49
2018-07-03T22:52:34.715Z,101070.37
2018-07-03T22:55:40.804Z,101066.86
2018-07-03T22:58:45.642Z,101065.98
2018-07-03T23:01:51.568Z,101069.89
2018-07-03T23:04:57.382Z,101066.42
2018-07-03T23:08:03.286Z,101070.01
2018-07-03T23:11:09.180Z,101071.72
2018-07-03T23:14:14.000Z,101074.88
2018-07-03T23:17:19.670Z,101074.31
2018-07-03T23:20:25.843Z,101072.77
2018-07-03T23:23:30.955Z,101072.21
2018-07-03T23:26:36.135Z,101065.55
2018-07-03T23:29:41.344Z,101065.31
2018-07-03T23:32:47.379Z,101062.99
2018-07-03T23:35:52.623Z,101067.08
2018-07-03T23:38:57.739Z,101063.45
2018-07-03T23:42:03.883Z,101061.73
2018-07-03T23:45:09.023Z,101058.58
2018-07-03T23:48:25.350Z,101053.77
2018-07-03T23:51:47.212Z,101068.03
2018-07-03T23:55:09.012Z,101064.88
2018-07-03T23:58:30.788Z,101060.45
